Home   Weather   Canada   Saint John   Past weeks
Flag for Canada

Past Weather in Saint John, New Brunswick, Canada — Yesterday and Last 2 Weeks

Currently: 19 °F. Passing clouds. (Weather station: Saint John, Canada). See more current weather

Past Weather in Saint John — Graph

°F

Saint John Temperature Yesterday

Maximum temperature yesterday: 48 °F (at 12:21 pm)
Minimum temperature yesterday: 25 °F (at 12:00 am)
Average temperature yesterday: 37 °F

High & Low Weather Summary for the Past Weeks

 TemperatureHumidityPressure
High50 °F (Jan 13, 4:00 pm)100% (Jan 13, 5:20 am)30.44 "Hg (Jan 13, 5:20 am)
Low1 °F (Jan 22, 7:00 am)26% (Jan 12, 1:00 pm)29.12 "Hg (Jan 26, 1:00 pm)
Average29 °F89%29.80 "Hg
* Reported Jan 12 7:00 am — Jan 27 7:00 am, Saint John. Weather by CustomWeather, © 2023

Note: Actual official high and low records may vary slightly from our data, if they occured in-between our weather recording intervals... More about our weather records

Saint John Weather History for the Previous 24 Hours

Scroll right to see more
 ConditionsComfort  
Time TempWeatherWind HumidityBarometerVisibility
7:00 am
Fri, Jan 27
19 °FPassing clouds.14 mph73%29.82 "Hg15 mi
6:00 am21 °FPassing clouds.13 mph74%29.76 "Hg15 mi
5:00 am23 °FPassing clouds.10 mph68%29.72 "Hg15 mi
4:00 am25 °FOvercast.12 mph74%29.68 "Hg15 mi
3:00 am27 °FPassing clouds.14 mph69%29.64 "Hg15 mi
2:00 am27 °FPartly cloudy.16 mph74%29.57 "Hg15 mi
1:00 am30 °FOvercast.10 mph86%29.53 "Hg15 mi
12:00 am32 °FMostly cloudy.10 mph87%29.50 "Hg15 mi
11:32 pm
Thu, Jan 26
32 °FMostly cloudy.10 mph87%29.48 "Hg10 mi
11:00 pm32 °FLight snow. Fog.10 mph93%29.46 "Hg3 mi
10:00 pm36 °FMostly cloudy.9 mph87%29.43 "Hg15 mi
9:00 pm37 °FMostly cloudy.12 mph87%29.40 "Hg15 mi
7:00 pm39 °FMostly cloudy.13 mph100%29.34 "Hg10 mi
6:53 pm39 °FOvercast.10 mph100%29.33 "Hg10 mi
6:15 pm39 °FFog.13 mph100%29.28 "Hg5 mi
5:56 pm41 °FSprinkles. Fog.14 mph100%29.26 "Hg4 mi
5:28 pm41 °FSprinkles. Fog.23 mph100%29.23 "Hg1 mi
5:16 pm41 °FFog.25 mph100%29.22 "Hg2 mi
5:00 pm41 °FFog.24 mph100%29.21 "Hg1 mi
4:00 pm45 °FFog.24 mph100%29.18 "Hg2 mi
3:35 pm45 °FFog.28 mph100%29.17 "Hg1 mi
3:00 pm46 °FLight rain. Fog.30 mph100%29.14 "Hg1 mi
2:12 pm46 °FLight rain. Fog.25 mph100%29.13 "Hg1 mi
1:00 pm48 °FRain. Fog.32 mph100%29.12 "Hg2 mi
12:21 pm48 °FRain. Fog.28 mph100%29.17 "Hg2 mi
12:00 pm46 °FLight rain. Fog.22 mph100%29.21 "Hg3 mi
11:51 am45 °FLight rain. Low clouds.20 mph100%29.23 "Hg7 mi
11:00 am45 °FRain. Fog.21 mph100%29.37 "Hg5 mi
10:00 am41 °FRain. Fog.18 mph100%29.46 "Hg5 mi
9:00 am39 °FRain. Fog.20 mph100%29.60 "Hg5 mi
8:00 am36 °FRain. Fog.26 mph100%29.64 "Hg5 mi
Weather by CustomWeather, © 2023

See weather overview